createdAt,value
2019-01-25T00:00:41.516Z,-6.50
2019-01-25T00:03:11.032Z,-6.50
2019-01-25T00:05:40.352Z,-6.50
2019-01-25T00:08:09.680Z,-6.50
2019-01-25T00:10:38.944Z,-6.50
2019-01-25T00:13:08.312Z,-6.50
2019-01-25T00:15:37.552Z,-6.50
2019-01-25T00:18:06.992Z,-6.50
2019-01-25T00:20:36.284Z,-6.50
2019-01-25T00:23:05.555Z,-6.50
2019-01-25T00:25:34.936Z,-6.50
2019-01-25T00:28:04.524Z,-6.50
2019-01-25T00:30:33.952Z,-6.50
2019-01-25T00:33:03.204Z,-6.40
2019-01-25T00:35:32.539Z,-6.40
2019-01-25T00:38:01.920Z,-6.40
2019-01-25T00:40:31.256Z,-6.40
2019-01-25T00:43:00.544Z,-6.40
2019-01-25T00:45:31.756Z,-6.40
2019-01-25T00:48:01.095Z,-6.40
2019-01-25T00:50:30.375Z,-6.30
2019-01-25T00:52:59.802Z,-6.30
2019-01-25T00:55:29.083Z,-6.30
2019-01-25T00:57:58.453Z,-6.30
2019-01-25T01:00:27.731Z,-6.30
2019-01-25T01:02:57.935Z,-6.30
2019-01-25T01:05:27.259Z,-6.30
2019-01-25T01:07:56.892Z,-6.20
2019-01-25T01:10:26.188Z,-6.20
2019-01-25T01:12:55.471Z,-6.10
2019-01-25T01:15:24.711Z,-6.10
2019-01-25T01:17:54.015Z,-6.10
2019-01-25T01:20:23.259Z,-6.10
2019-01-25T01:22:52.551Z,-6.10
2019-01-25T01:25:21.795Z,-6.10
2019-01-25T01:27:51.083Z,-6.10
2019-01-25T01:30:22.583Z,-6.10
2019-01-25T01:32:52.524Z,-6.10
2019-01-25T01:35:21.775Z,-6.20
2019-01-25T01:37:51.851Z,-6.20
2019-01-25T01:40:23.320Z,-6.20
2019-01-25T01:42:53.907Z,-6.20
2019-01-25T01:45:23.590Z,-6.20
2019-01-25T01:47:52.946Z,-6.20
2019-01-25T01:50:22.202Z,-6.20
2019-01-25T01:52:52.175Z,-6.10
2019-01-25T01:55:21.450Z,-6.10
2019-01-25T01:57:50.722Z,-6.20
2019-01-25T02:00:24.910Z,-6.20
2019-01-25T02:02:54.482Z,-6.10
2019-01-25T02:05:23.914Z,-6.10
2019-01-25T02:07:53.248Z,-6.10
2019-01-25T02:10:29.563Z,-6.10
2019-01-25T02:12:57.722Z,-6.10
2019-01-25T02:15:26.994Z,-6.10
2019-01-25T02:17:56.282Z,-6.00
2019-01-25T02:20:28.131Z,-6.00
2019-01-25T02:22:57.758Z,-6.00
2019-01-25T02:25:27.057Z,-6.00
2019-01-25T02:27:56.354Z,-6.00
2019-01-25T02:30:26.846Z,-6.00
2019-01-25T02:32:56.265Z,-6.00
2019-01-25T02:35:25.610Z,-6.00
2019-01-25T02:37:55.178Z,-6.00
2019-01-25T02:40:25.933Z,-5.90
2019-01-25T02:42:55.528Z,-5.90
2019-01-25T02:45:24.803Z,-5.90
2019-01-25T02:47:54.110Z,-5.90
2019-01-25T02:50:23.408Z,-5.90
2019-01-25T02:52:52.693Z,-5.90
2019-01-25T02:55:22.062Z,-6.00
2019-01-25T02:57:51.337Z,-6.00
2019-01-25T03:00:23.045Z,-6.00
2019-01-25T03:02:52.594Z,-6.00
2019-01-25T03:05:22.554Z,-6.00
2019-01-25T03:07:51.958Z,-5.90
2019-01-25T03:10:28.611Z,-5.90
2019-01-25T03:12:52.744Z,-5.80
2019-01-25T03:15:24.173Z,-5.80
2019-01-25T03:17:53.697Z,-5.80
2019-01-25T03:20:22.964Z,-5.70
2019-01-25T03:22:52.234Z,-5.70
2019-01-25T03:25:24.219Z,-5.70
2019-01-25T03:27:53.481Z,-5.70
2019-01-25T03:30:23.598Z,-5.70
2019-01-25T03:32:53.003Z,-5.70
2019-01-25T03:35:24.437Z,-5.70
2019-01-25T03:37:54.177Z,-5.70
2019-01-25T03:40:25.641Z,-5.70
2019-01-25T03:42:55.052Z,-5.70
2019-01-25T03:45:24.955Z,-5.70
2019-01-25T03:47:54.484Z,-5.70
2019-01-25T03:50:26.538Z,-5.70
2019-01-25T03:52:56.260Z,-5.80
2019-01-25T03:55:26.375Z,-5.80
2019-01-25T03:57:55.634Z,-5.80
2019-01-25T04:00:26.928Z,-5.70
2019-01-25T04:02:56.188Z,-5.70
2019-01-25T04:05:25.740Z,-5.70
2019-01-25T04:07:54.985Z,-5.70
2019-01-25T04:10:28.908Z,-5.70
2019-01-25T04:12:58.194Z,-5.70
2019-01-25T04:15:29.996Z,-5.70
2019-01-25T04:17:59.279Z,-5.70
2019-01-25T04:23:04.097Z,-5.70
2019-01-25T04:25:33.465Z,-5.70
2019-01-25T04:28:02.712Z,-5.70
2019-01-25T04:30:32.936Z,-5.70
2019-01-25T04:33:02.348Z,-5.70
2019-01-25T04:35:31.636Z,-5.70
2019-01-25T04:38:00.998Z,-5.70
2019-01-25T04:40:30.284Z,-5.70
2019-01-25T04:42:59.661Z,-5.70
2019-01-25T04:45:28.976Z,-5.70
2019-01-25T04:47:58.259Z,-5.70
2019-01-25T04:50:27.820Z,-5.70
2019-01-25T04:52:57.116Z,-5.70
2019-01-25T04:55:28.297Z,-5.60
2019-01-25T04:58:09.343Z,-5.60
2019-01-25T05:00:38.599Z,-5.60
2019-01-25T05:03:07.961Z,-5.60
2019-01-25T05:05:37.307Z,-5.60
2019-01-25T05:08:26.976Z,-5.60
2019-01-25T05:10:56.224Z,-5.60
2019-01-25T05:13:25.514Z,-5.60
2019-01-25T05:15:54.780Z,-5.60
2019-01-25T05:18:24.068Z,-5.60
2019-01-25T05:20:53.341Z,-5.60
2019-01-25T05:23:22.663Z,-5.60
2019-01-25T05:25:51.955Z,-5.50
2019-01-25T05:28:21.591Z,-5.50
2019-01-25T05:31:01.849Z,-5.50
2019-01-25T05:33:31.228Z,-5.40
2019-01-25T05:36:00.580Z,-5.40
2019-01-25T05:38:29.862Z,-5.40
2019-01-25T05:40:59.123Z,-5.50
2019-01-25T05:43:31.327Z,-5.50
2019-01-25T05:46:00.603Z,-5.50
2019-01-25T05:48:30.348Z,-5.50
2019-01-25T05:51:04.335Z,-5.50
2019-01-25T05:53:33.964Z,-5.50
2019-01-25T05:56:03.240Z,-5.50
2019-01-25T05:58:32.515Z,-5.50
2019-01-25T06:01:02.316Z,-5.50
2019-01-25T06:03:31.596Z,-5.40
2019-01-25T06:06:02.450Z,-5.40
2019-01-25T06:08:32.755Z,-5.40
2019-01-25T06:11:10.164Z,-5.40
2019-01-25T06:13:40.527Z,-5.40
2019-01-25T06:16:09.879Z,-5.30
2019-01-25T06:18:39.155Z,-5.40
2019-01-25T06:21:08.407Z,-5.40
2019-01-25T06:23:37.714Z,-5.40
2019-01-25T06:26:08.454Z,-5.40
2019-01-25T06:28:37.729Z,-5.40
2019-01-25T06:31:07.113Z,-5.40
2019-01-25T06:33:36.398Z,-5.40
2019-01-25T06:36:07.278Z,-5.30
2019-01-25T06:38:37.020Z,-5.30
2019-01-25T06:41:06.961Z,-5.30
2019-01-25T06:43:36.213Z,-5.20
2019-01-25T06:46:06.053Z,-5.20
2019-01-25T06:48:35.425Z,-5.20
2019-01-25T06:51:05.214Z,-5.20
2019-01-25T06:53:34.454Z,-5.20
2019-01-25T06:56:04.405Z,-5.20
2019-01-25T06:58:55.473Z,-5.20
2019-01-25T07:01:28.701Z,-5.20
2019-01-25T07:03:57.945Z,-5.20
2019-01-25T07:06:27.217Z,-5.20
2019-01-25T07:08:56.557Z,-5.20
2019-01-25T07:11:25.897Z,-5.30
2019-01-25T07:13:55.218Z,-5.30
2019-01-25T07:16:24.586Z,-5.30
2019-01-25T07:18:54.033Z,-5.30
2019-01-25T07:21:23.326Z,-5.20
2019-01-25T07:23:52.605Z,-5.20
2019-01-25T07:26:21.955Z,-5.20
2019-01-25T07:28:51.253Z,-5.20
2019-01-25T07:31:20.580Z,-5.10
2019-01-25T07:33:49.817Z,-5.10
2019-01-25T07:36:19.290Z,-5.10
2019-01-25T07:38:48.813Z,-5.10
2019-01-25T07:41:18.081Z,-5.10
2019-01-25T07:43:47.611Z,-5.10
2019-01-25T07:46:16.833Z,-5.00
2019-01-25T07:48:46.226Z,-5.00
2019-01-25T07:51:15.549Z,-5.00
2019-01-25T07:53:44.875Z,-4.90
2019-01-25T07:56:14.249Z,-4.90
2019-01-25T07:58:43.480Z,-4.80
2019-01-25T08:01:12.780Z,-4.80
2019-01-25T08:03:42.020Z,-4.80
2019-01-25T08:06:11.311Z,-4.80
2019-01-25T08:08:40.589Z,-4.80
2019-01-25T08:11:09.867Z,-4.80
2019-01-25T08:13:39.117Z,-4.80
2019-01-25T08:16:08.413Z,-4.80
2019-01-25T08:18:38.025Z,-4.80
2019-01-25T08:21:07.292Z,-4.80
2019-01-25T08:23:36.572Z,-4.80
2019-01-25T08:26:06.087Z,-4.80
2019-01-25T08:28:35.379Z,-4.70
2019-01-25T08:31:04.613Z,-4.70
2019-01-25T08:33:33.905Z,-4.70
2019-01-25T08:36:03.222Z,-4.70
2019-01-25T08:38:32.489Z,-4.60
2019-01-25T08:41:01.764Z,-4.60
2019-01-25T08:43:31.112Z,-4.60
2019-01-25T08:46:00.457Z,-4.60
2019-01-25T08:48:29.727Z,-4.60
2019-01-25T08:50:59.416Z,-4.50
2019-01-25T08:53:28.672Z,-4.50
2019-01-25T08:55:58.160Z,-4.50
2019-01-25T08:58:27.527Z,-4.50
2019-01-25T09:00:56.864Z,-4.50
2019-01-25T09:03:26.163Z,-4.50
2019-01-25T09:05:55.448Z,-4.60
2019-01-25T09:08:24.720Z,-4.60
2019-01-25T09:10:53.991Z,-4.60
2019-01-25T09:13:23.315Z,-4.60
2019-01-25T09:15:52.609Z,-4.60
2019-01-25T09:18:21.863Z,-4.60
2019-01-25T09:20:51.118Z,-4.60
2019-01-25T09:23:20.411Z,-4.60
2019-01-25T09:25:49.767Z,-4.60
2019-01-25T09:28:19.079Z,-4.50
2019-01-25T09:30:48.359Z,-4.50
2019-01-25T09:33:17.608Z,-4.50
2019-01-25T09:35:46.890Z,-4.40
2019-01-25T09:38:16.260Z,-4.40
2019-01-25T09:40:45.538Z,-4.30
2019-01-25T09:43:14.815Z,-4.20
2019-01-25T09:45:44.039Z,-4.20
2019-01-25T09:48:13.310Z,-4.10
2019-01-25T09:50:42.483Z,-3.90
2019-01-25T09:53:11.874Z,-3.80
2019-01-25T09:55:41.118Z,-3.70
2019-01-25T09:58:12.626Z,-3.70
2019-01-25T10:01:08.115Z,-3.60
2019-01-25T10:03:37.406Z,-3.50
2019-01-25T10:06:06.676Z,-3.50
2019-01-25T10:08:36.127Z,-3.40
2019-01-25T10:11:05.502Z,-3.40
2019-01-25T10:13:34.793Z,-3.30
2019-01-25T10:16:04.250Z,-3.30
2019-01-25T10:18:33.530Z,-3.20
2019-01-25T10:21:02.827Z,-3.10
2019-01-25T10:23:32.071Z,-3.00
2019-01-25T10:26:01.386Z,-3.00
2019-01-25T10:28:30.662Z,-3.00
2019-01-25T10:30:59.954Z,-2.90
2019-01-25T10:33:30.050Z,-2.90
2019-01-25T10:35:59.307Z,-2.90
2019-01-25T10:38:28.562Z,-2.80
2019-01-25T10:40:57.851Z,-2.80
2019-01-25T10:43:27.210Z,-2.80
2019-01-25T10:45:56.454Z,-2.80
2019-01-25T10:48:25.734Z,-2.70
2019-01-25T10:50:55.034Z,-2.70
2019-01-25T10:53:24.341Z,-2.60
2019-01-25T10:55:53.898Z,-2.60
2019-01-25T10:58:23.497Z,-2.70
2019-01-25T11:00:52.829Z,-2.70
2019-01-25T11:03:22.129Z,-2.60
2019-01-25T11:05:51.389Z,-2.60
2019-01-25T11:08:20.617Z,-2.50
2019-01-25T11:10:49.809Z,-2.40
2019-01-25T11:13:19.054Z,-2.40
2019-01-25T11:15:48.430Z,-2.40
2019-01-25T11:18:17.728Z,-2.30
2019-01-25T11:20:47.053Z,-2.30
2019-01-25T11:23:16.301Z,-2.30
2019-01-25T11:25:45.601Z,-2.20
2019-01-25T11:28:14.921Z,-2.10
2019-01-25T11:30:44.169Z,-2.00
2019-01-25T11:33:13.457Z,-1.80
2019-01-25T11:35:42.797Z,-1.90
2019-01-25T11:38:12.086Z,-1.90
2019-01-25T11:40:43.265Z,-1.90
2019-01-25T11:43:12.537Z,-1.90
2019-01-25T11:45:42.117Z,-1.90
2019-01-25T11:48:14.667Z,-1.80
2019-01-25T11:50:44.001Z,-1.80
2019-01-25T11:53:13.365Z,-1.90
2019-01-25T11:55:42.657Z,-1.90
2019-01-25T11:58:12.005Z,-2.00
2019-01-25T12:00:44.584Z,-2.00
2019-01-25T12:03:13.892Z,-2.10
2019-01-25T12:05:43.076Z,-2.10
2019-01-25T12:08:12.834Z,-2.20
2019-01-25T12:10:42.671Z,-2.30
2019-01-25T12:13:16.336Z,-2.40
2019-01-25T12:15:44.690Z,-2.40
2019-01-25T12:18:14.055Z,-2.40
2019-01-25T12:20:43.250Z,-2.40
2019-01-25T12:23:12.526Z,-2.40
2019-01-25T12:25:41.911Z,-2.50
2019-01-25T12:28:11.198Z,-2.50
2019-01-25T12:30:40.938Z,-2.50
2019-01-25T12:33:10.630Z,-2.60
2019-01-25T12:35:42.082Z,-2.60
2019-01-25T12:38:11.366Z,-2.60
2019-01-25T12:40:42.412Z,-2.60
2019-01-25T12:43:11.602Z,-2.70
2019-01-25T12:45:40.945Z,-2.70
2019-01-25T12:48:10.277Z,-2.70
2019-01-25T12:50:42.427Z,-2.70
2019-01-25T12:53:11.790Z,-2.80
2019-01-25T12:55:41.422Z,-2.80
2019-01-25T12:58:10.709Z,-2.80
2019-01-25T13:00:42.172Z,-2.80
2019-01-25T13:03:11.653Z,-2.90
2019-01-25T13:05:41.229Z,-2.90
2019-01-25T13:08:10.481Z,-2.90
2019-01-25T13:10:39.805Z,-2.90
2019-01-25T13:13:09.085Z,-2.90
2019-01-25T13:15:38.437Z,-2.90
2019-01-25T13:18:08.181Z,-2.90
2019-01-25T13:20:39.469Z,-2.90
2019-01-25T13:23:08.420Z,-2.90
2019-01-25T13:25:37.666Z,-3.00
2019-01-25T13:28:06.983Z,-2.90
2019-01-25T13:30:36.397Z,-2.90
2019-01-25T13:33:05.738Z,-3.00
2019-01-25T13:35:34.990Z,-2.90
2019-01-25T13:38:04.485Z,-2.90
2019-01-25T13:40:33.732Z,-2.90
2019-01-25T13:43:02.973Z,-2.80
2019-01-25T13:45:32.257Z,-2.80
2019-01-25T13:48:01.549Z,-2.80
2019-01-25T13:50:30.918Z,-2.80
2019-01-25T13:53:00.406Z,-2.80
2019-01-25T13:55:29.708Z,-2.80
2019-01-25T13:57:59.077Z,-2.90
2019-01-25T14:00:30.244Z,-2.90
2019-01-25T14:02:59.526Z,-2.90
2019-01-25T14:05:28.767Z,-2.80
2019-01-25T14:07:58.448Z,-2.80
2019-01-25T14:10:29.869Z,-2.70
2019-01-25T14:12:59.150Z,-2.70
2019-01-25T14:15:28.404Z,-2.70
2019-01-25T14:17:57.691Z,-2.70
2019-01-25T14:20:28.804Z,-2.70
2019-01-25T14:22:58.044Z,-2.70
2019-01-25T14:25:27.420Z,-2.70
2019-01-25T14:27:56.709Z,-2.70
2019-01-25T14:30:38.072Z,-2.70
2019-01-25T14:33:08.077Z,-2.80
2019-01-25T14:35:38.104Z,-2.70
2019-01-25T14:38:08.620Z,-2.70
2019-01-25T14:40:37.864Z,-2.80
2019-01-25T14:43:07.148Z,-2.80
2019-01-25T14:45:37.504Z,-2.80
2019-01-25T14:48:07.548Z,-2.80
2019-01-25T14:50:36.820Z,-2.80
2019-01-25T14:53:07.249Z,-2.80
2019-01-25T14:55:36.540Z,-2.80
2019-01-25T14:58:06.578Z,-2.80
2019-01-25T15:00:35.917Z,-2.80
2019-01-25T15:03:05.410Z,-2.80
2019-01-25T15:05:34.618Z,-2.80
2019-01-25T15:08:03.911Z,-2.80
2019-01-25T15:10:35.018Z,-2.90
2019-01-25T15:13:04.889Z,-2.90
2019-01-25T15:15:34.247Z,-2.90
2019-01-25T15:18:03.550Z,-3.00
2019-01-25T15:20:32.794Z,-3.00
2019-01-25T15:23:02.142Z,-3.00
2019-01-25T15:25:31.378Z,-3.00
2019-01-25T15:28:00.674Z,-3.00
2019-01-25T15:30:31.858Z,-3.00
2019-01-25T15:33:01.283Z,-3.00
2019-01-25T15:35:30.526Z,-3.00
2019-01-25T15:37:59.810Z,-3.10
2019-01-25T15:40:29.070Z,-3.10
2019-01-25T15:42:58.318Z,-3.10
2019-01-25T15:45:27.634Z,-3.10
2019-01-25T15:47:56.881Z,-3.10
2019-01-25T15:50:28.637Z,-3.10
2019-01-25T15:52:57.901Z,-3.10
2019-01-25T15:55:27.513Z,-3.10
2019-01-25T15:57:56.769Z,-3.10
2019-01-25T16:00:27.565Z,-3.10
2019-01-25T16:02:56.847Z,-3.10
2019-01-25T16:05:26.233Z,-3.10
2019-01-25T16:07:55.813Z,-3.10
2019-01-25T16:10:25.053Z,-3.10
2019-01-25T16:12:54.377Z,-3.20
2019-01-25T16:15:28.505Z,-3.20
2019-01-25T16:17:57.814Z,-3.20
2019-01-25T16:20:27.089Z,-3.20
2019-01-25T16:22:56.958Z,-3.20
2019-01-25T16:25:28.409Z,-3.20
2019-01-25T16:27:58.021Z,-3.20
2019-01-25T16:30:29.237Z,-3.20
2019-01-25T16:32:58.537Z,-3.30
2019-01-25T16:35:27.796Z,-3.20
2019-01-25T16:37:57.037Z,-3.20
2019-01-25T16:40:27.280Z,-3.30
2019-01-25T16:42:56.532Z,-3.20
2019-01-25T16:45:28.645Z,-3.30
2019-01-25T16:47:57.900Z,-3.20
2019-01-25T16:50:27.377Z,-3.20
2019-01-25T16:52:56.792Z,-3.30
2019-01-25T16:55:25.988Z,-3.30
2019-01-25T16:57:55.376Z,-3.30
2019-01-25T17:00:32.564Z,-3.30
2019-01-25T17:03:01.800Z,-3.30
2019-01-25T17:05:31.264Z,-3.30
2019-01-25T17:08:00.540Z,-3.30
2019-01-25T17:10:30.094Z,-3.30
2019-01-25T17:12:59.385Z,-3.40
2019-01-25T17:15:28.744Z,-3.40
2019-01-25T17:17:58.022Z,-3.40
2019-01-25T17:20:27.371Z,-3.40
2019-01-25T17:22:56.882Z,-3.40
2019-01-25T17:25:26.112Z,-3.40
2019-01-25T17:27:55.393Z,-3.30
2019-01-25T17:30:26.597Z,-3.40
2019-01-25T17:32:56.848Z,-3.40
2019-01-25T17:35:26.144Z,-3.40
2019-01-25T17:37:55.379Z,-3.40
2019-01-25T17:40:32.975Z,-3.40
2019-01-25T17:43:02.263Z,-3.30
2019-01-25T17:45:31.617Z,-3.40
2019-01-25T17:48:00.867Z,-3.40
2019-01-25T17:50:30.219Z,-3.40
2019-01-25T17:52:59.507Z,-3.40
2019-01-25T17:55:28.871Z,-3.40
2019-01-25T17:57:58.126Z,-3.40
2019-01-25T18:00:47.965Z,-3.40
2019-01-25T18:03:17.564Z,-3.40
2019-01-25T18:05:46.888Z,-3.40
2019-01-25T18:08:16.196Z,-3.40
2019-01-25T18:10:45.577Z,-3.40
2019-01-25T18:13:14.954Z,-3.40
2019-01-25T18:15:44.216Z,-3.40
2019-01-25T18:18:13.566Z,-3.40
2019-01-25T18:20:42.810Z,-3.40
2019-01-25T18:23:12.190Z,-3.40
2019-01-25T18:25:59.702Z,-3.40
2019-01-25T18:28:35.854Z,-3.40
2019-01-25T18:31:12.958Z,-3.40
2019-01-25T18:33:42.370Z,-3.40
2019-01-25T18:36:11.613Z,-3.40
2019-01-25T18:38:40.888Z,-3.40
2019-01-25T18:41:10.242Z,-3.40
2019-01-25T18:43:39.402Z,-3.40
2019-01-25T18:46:08.670Z,-3.40
2019-01-25T18:48:37.970Z,-3.40
2019-01-25T18:51:07.198Z,-3.40
2019-01-25T18:53:36.487Z,-3.30
2019-01-25T18:56:07.342Z,-3.40
2019-01-25T18:58:36.613Z,-3.40
2019-01-25T19:01:06.077Z,-3.30
2019-01-25T19:03:35.434Z,-3.40
2019-01-25T19:06:04.985Z,-3.40
2019-01-25T19:08:34.254Z,-3.40
2019-01-25T19:11:03.529Z,-3.40
2019-01-25T19:13:32.841Z,-3.40
2019-01-25T19:16:02.119Z,-3.40
2019-01-25T19:18:31.401Z,-3.30
2019-01-25T19:21:00.726Z,-3.40
2019-01-25T19:23:30.018Z,-3.40
2019-01-25T19:25:59.279Z,-3.40
2019-01-25T19:28:28.546Z,-3.40
2019-01-25T19:30:57.829Z,-3.40
2019-01-25T19:33:27.173Z,-3.40
2019-01-25T19:35:56.469Z,-3.30
2019-01-25T19:38:26.012Z,-3.30
2019-01-25T19:40:55.325Z,-3.40
2019-01-25T19:43:24.617Z,-3.40
2019-01-25T19:45:53.917Z,-3.40
2019-01-25T19:48:23.157Z,-3.30
2019-01-25T19:50:52.393Z,-3.30
2019-01-25T19:53:21.677Z,-3.30
2019-01-25T19:55:50.965Z,-3.30
2019-01-25T19:58:20.781Z,-3.30
2019-01-25T20:00:50.060Z,-3.30
2019-01-25T20:03:19.301Z,-3.30
2019-01-25T20:05:48.813Z,-3.30
2019-01-25T20:08:18.155Z,-3.30
2019-01-25T20:10:47.792Z,-3.30
2019-01-25T20:13:17.016Z,-3.30
2019-01-25T20:15:46.283Z,-3.30
2019-01-25T20:18:15.579Z,-3.30
2019-01-25T20:20:44.911Z,-3.30
2019-01-25T20:23:14.232Z,-3.30
2019-01-25T20:25:43.599Z,-3.30
2019-01-25T20:28:12.871Z,-3.30
2019-01-25T20:30:49.429Z,-3.30
2019-01-25T20:33:13.159Z,-3.30
2019-01-25T20:35:43.214Z,-3.30
2019-01-25T20:38:12.547Z,-3.30
2019-01-25T20:40:42.225Z,-3.30
2019-01-25T20:43:12.974Z,-3.30
2019-01-25T20:45:42.658Z,-3.20
2019-01-25T20:48:12.031Z,-3.20
2019-01-25T20:50:41.319Z,-3.20
2019-01-25T20:53:11.627Z,-3.20
2019-01-25T20:55:41.058Z,-3.30
2019-01-25T20:58:10.502Z,-3.20
2019-01-25T21:00:40.286Z,-3.30
2019-01-25T21:03:14.500Z,-3.20
2019-01-25T21:05:43.871Z,-3.20
2019-01-25T21:08:13.122Z,-3.20
2019-01-25T21:10:42.400Z,-3.20
2019-01-25T21:13:11.779Z,-3.20
2019-01-25T21:15:41.167Z,-3.20
2019-01-25T21:18:10.379Z,-3.20
2019-01-25T21:20:45.315Z,-3.20
2019-01-25T21:23:14.556Z,-3.20
2019-01-25T21:25:43.799Z,-3.20
2019-01-25T21:28:13.277Z,-3.20
2019-01-25T21:30:42.581Z,-3.20
2019-01-25T21:33:11.936Z,-3.20
2019-01-25T21:35:41.214Z,-3.20
2019-01-25T21:40:40.560Z,-3.20
2019-01-25T21:43:09.784Z,-3.20
2019-01-25T21:45:43.222Z,-3.20
2019-01-25T21:48:15.525Z,-3.20
2019-01-25T21:50:45.956Z,-3.20
2019-01-25T21:53:15.352Z,-3.10
2019-01-25T21:55:44.680Z,-3.10
2019-01-25T21:58:14.068Z,-3.10
2019-01-25T22:00:43.372Z,-3.10
2019-01-25T22:03:12.657Z,-3.10
2019-01-25T22:05:41.895Z,-3.10
2019-01-25T22:08:11.207Z,-3.10
2019-01-25T22:10:46.031Z,-3.10
2019-01-25T22:13:15.352Z,-3.10
2019-01-25T22:15:50.722Z,-3.10
2019-01-25T22:18:15.531Z,-3.10
2019-01-25T22:20:44.799Z,-3.00
2019-01-25T22:23:14.152Z,-3.10
2019-01-25T22:25:43.459Z,-3.00
2019-01-25T22:28:12.747Z,-3.00
2019-01-25T22:30:41.986Z,-3.00
2019-01-25T22:33:11.255Z,-3.00
2019-01-25T22:35:40.615Z,-3.00
2019-01-25T22:38:09.926Z,-3.00
2019-01-25T22:40:39.226Z,-3.00
2019-01-25T22:43:08.438Z,-3.00
2019-01-25T22:45:38.086Z,-3.00
2019-01-25T22:48:07.518Z,-3.00
2019-01-25T22:50:37.462Z,-3.00
2019-01-25T22:53:06.813Z,-3.00
2019-01-25T22:55:36.033Z,-3.00
2019-01-25T22:58:05.697Z,-3.00
2019-01-25T23:01:02.643Z,-3.00
2019-01-25T23:03:48.689Z,-3.00
2019-01-25T23:06:40.373Z,-3.00
2019-01-25T23:09:32.564Z,-3.00
2019-01-25T23:12:01.769Z,-3.00
2019-01-25T23:14:31.005Z,-3.00
2019-01-25T23:17:00.252Z,-3.00
2019-01-25T23:19:29.484Z,-3.00
2019-01-25T23:21:58.760Z,-3.00
2019-01-25T23:24:27.924Z,-3.00
2019-01-25T23:26:57.207Z,-3.00
2019-01-25T23:29:26.469Z,-3.00
2019-01-25T23:31:55.757Z,-3.00
2019-01-25T23:34:24.987Z,-3.00
2019-01-25T23:36:54.231Z,-3.00
2019-01-25T23:39:23.531Z,-3.00
2019-01-25T23:41:52.833Z,-3.10
2019-01-25T23:44:22.135Z,-3.10
2019-01-25T23:46:51.563Z,-3.10
2019-01-25T23:49:20.822Z,-3.10
2019-01-25T23:51:50.050Z,-3.10
2019-01-25T23:54:19.322Z,-3.10
2019-01-25T23:56:48.515Z,-3.20
2019-01-25T23:59:17.774Z,-3.20
